Bellwood, Nebraska
Current Conditions -  °F | °C
As of 4:55 PM on Monday 24 Nov 2014 (Local Time) from KOLU Reporting Station
Clear Clear  
Wind Chill: 22°   Ceiling: Unl
Heat Index: 32°   Visibility: 10mi
Dew Point:   Wind: 14mph
Humidity: 35%   Direction: 330°NNW
Pressure: 29.94"   Gusts: 22mph
Location:  41.34°N, 97.24°W
Report Text: KOLU 242255Z AUTO 33012G19KT 10SM CLR 00/M14 A2994 RMK AO1
Loading
Personal Weather Stations






























Interactive Weather Map New forecast layout! Learn more

10-Day Weather Forecast

Advertisements
Track Severe Weather on mobile